createdAt,value
2019-01-21T00:01:57.547Z,12.85
2019-01-21T00:04:00.563Z,11.88
2019-01-21T00:06:04.218Z,11.45
2019-01-21T00:08:07.107Z,12.25
2019-01-21T00:10:10.043Z,14.10
2019-01-21T00:12:12.950Z,12.30
2019-01-21T00:14:15.836Z,13.35
2019-01-21T00:16:18.760Z,14.05
2019-01-21T00:18:22.419Z,14.05
2019-01-21T00:20:25.330Z,12.93
2019-01-21T00:22:28.990Z,13.45
2019-01-21T00:24:32.638Z,13.50
2019-01-21T00:26:36.346Z,12.85
2019-01-21T00:28:40.011Z,12.15
2019-01-21T00:30:42.930Z,13.18
2019-01-21T00:32:46.576Z,14.23
2019-01-21T00:34:49.455Z,13.60
2019-01-21T00:36:52.361Z,13.17
2019-01-21T00:38:56.060Z,12.80
2019-01-21T00:40:58.998Z,13.60
2019-01-21T00:43:01.895Z,12.57
2019-01-21T00:45:04.770Z,11.68
2019-01-21T00:47:07.684Z,13.82
2019-01-21T00:49:10.558Z,13.57
2019-01-21T00:51:13.490Z,12.40
2019-01-21T00:53:16.376Z,10.70
2019-01-21T00:55:19.262Z,13.23
2019-01-21T00:57:22.170Z,13.45
2019-01-21T00:59:25.047Z,12.60
2019-01-21T01:01:27.959Z,12.75
2019-01-21T01:03:31.614Z,12.70
2019-01-21T01:05:34.494Z,12.02
2019-01-21T01:07:37.479Z,12.18
2019-01-21T01:09:40.366Z,12.80
2019-01-21T01:11:43.279Z,11.45
2019-01-21T01:13:46.940Z,12.10
2019-01-21T01:15:49.845Z,12.98
2019-01-21T01:17:52.754Z,11.55
2019-01-21T01:19:55.657Z,11.55
2019-01-21T01:21:58.558Z,12.55
2019-01-21T01:24:01.460Z,11.00
2019-01-21T01:26:04.344Z,12.00
2019-01-21T01:28:07.253Z,12.50
2019-01-21T01:30:11.071Z,10.53
2019-01-21T01:32:14.758Z,12.20
2019-01-21T01:34:18.409Z,11.57
2019-01-21T01:36:21.362Z,11.55
2019-01-21T01:38:24.262Z,11.80
2019-01-21T01:40:27.137Z,11.52
2019-01-21T01:42:30.088Z,12.85
2019-01-21T01:44:33.735Z,11.43
2019-01-21T01:46:36.631Z,12.60
2019-01-21T01:48:39.531Z,11.48
2019-01-21T01:50:42.419Z,12.30
2019-01-21T01:52:46.111Z,12.53
2019-01-21T01:54:49.004Z,12.68
2019-01-21T01:56:52.656Z,12.68
2019-01-21T01:58:55.562Z,12.55
2019-01-21T02:00:58.450Z,12.05
2019-01-21T02:03:02.144Z,12.17
2019-01-21T02:05:05.045Z,12.82
2019-01-21T02:07:08.698Z,12.65
2019-01-21T02:09:11.609Z,11.82
2019-01-21T02:11:14.484Z,11.73
2019-01-21T02:13:17.406Z,11.52
2019-01-21T02:15:21.070Z,12.95
2019-01-21T02:17:23.962Z,11.43
2019-01-21T02:19:27.071Z,11.32
2019-01-21T02:21:30.721Z,12.13
2019-01-21T02:23:35.054Z,11.02
2019-01-21T02:25:42.927Z,11.93
2019-01-21T02:28:06.747Z,11.30
2019-01-21T02:30:16.064Z,11.38
2019-01-21T02:32:42.339Z,9.70
2019-01-21T02:34:48.618Z,11.20
2019-01-21T02:37:25.947Z,11.05
2019-01-21T02:39:31.410Z,11.60
2019-01-21T02:41:34.337Z,10.70
2019-01-21T02:43:51.837Z,10.30
2019-01-21T02:45:54.783Z,10.23
2019-01-21T02:48:02.386Z,11.00
2019-01-21T02:50:18.918Z,10.63
2019-01-21T02:52:28.461Z,9.82
2019-01-21T02:54:35.090Z,11.15
2019-01-21T02:56:41.626Z,12.02
2019-01-21T02:58:56.402Z,11.63
2019-01-21T03:01:09.024Z,11.68
2019-01-21T03:03:27.471Z,10.45
2019-01-21T03:05:33.831Z,10.60
2019-01-21T03:07:51.116Z,11.25
2019-01-21T03:09:58.640Z,11.00
2019-01-21T03:12:19.837Z,10.97
2019-01-21T03:20:03.220Z,15.80
2019-01-21T03:22:10.148Z,12.40
2019-01-21T03:24:15.913Z,11.73
2019-01-21T03:26:38.377Z,10.50
2019-01-21T03:31:40.669Z,14.65
2019-01-21T03:33:50.146Z,12.83
2019-01-21T03:36:04.309Z,11.10
2019-01-21T03:38:08.926Z,11.20
2019-01-21T03:40:15.720Z,11.05
2019-01-21T03:42:22.045Z,10.60
2019-01-21T03:44:29.634Z,11.12
2019-01-21T03:47:03.963Z,10.20
2019-01-21T03:49:12.871Z,10.18
2019-01-21T03:51:43.256Z,10.27
2019-01-21T03:53:47.591Z,9.68
2019-01-21T03:55:50.487Z,9.73
2019-01-21T03:57:55.730Z,10.95
2019-01-21T04:00:01.154Z,10.48
2019-01-21T04:02:19.542Z,9.43
2019-01-21T04:04:24.483Z,11.12
2019-01-21T04:06:28.106Z,11.27
2019-01-21T04:08:31.815Z,11.98
2019-01-21T04:10:57.415Z,10.15
2019-01-21T04:13:09.736Z,11.02
2019-01-21T04:15:22.728Z,10.75
2019-01-21T04:17:30.202Z,10.90
2019-01-21T04:19:40.384Z,9.80
2019-01-21T04:21:59.738Z,10.73
2019-01-21T04:24:19.902Z,10.43
2019-01-21T04:26:27.223Z,9.15
2019-01-21T04:28:31.921Z,10.53
2019-01-21T04:30:52.307Z,10.95
2019-01-21T04:33:01.913Z,10.25
2019-01-21T04:35:26.355Z,11.12
2019-01-21T04:37:35.083Z,10.63
2019-01-21T04:39:43.577Z,10.35
2019-01-21T04:42:03.126Z,9.70
2019-01-21T04:44:06.090Z,10.23
2019-01-21T04:46:30.250Z,10.77
2019-01-21T04:48:40.768Z,12.30
2019-01-21T04:50:55.143Z,9.90
2019-01-21T04:53:09.115Z,10.25
2019-01-21T04:55:12.044Z,11.45
2019-01-21T04:57:29.583Z,12.06
2019-01-21T04:59:34.010Z,10.48
2019-01-21T05:01:36.915Z,11.20
2019-01-21T05:03:55.572Z,11.82
2019-01-21T05:06:09.498Z,12.18
2019-01-21T05:08:30.657Z,12.00
2019-01-21T05:10:39.127Z,10.60
2019-01-21T05:12:49.583Z,11.02
2019-01-21T05:15:08.142Z,11.10
2019-01-21T05:17:24.827Z,10.88
2019-01-21T05:19:33.579Z,12.20
2019-01-21T05:21:54.731Z,11.33
2019-01-21T05:24:14.493Z,10.60
2019-01-21T05:26:21.365Z,10.88
2019-01-21T05:28:42.434Z,9.68
2019-01-21T05:30:48.086Z,11.85
2019-01-21T05:33:08.516Z,10.18
2019-01-21T05:35:40.805Z,9.63
2019-01-21T05:38:09.175Z,10.17
2019-01-21T05:40:31.520Z,10.70
2019-01-21T05:42:55.270Z,11.30
2019-01-21T05:45:14.736Z,11.60
2019-01-21T05:47:34.511Z,9.77
2019-01-21T05:49:56.504Z,10.50
2019-01-21T05:52:17.118Z,11.52
2019-01-21T05:54:36.488Z,10.50
2019-01-21T05:57:00.736Z,11.20
2019-01-21T05:59:10.382Z,10.37
2019-01-21T06:01:17.211Z,11.38
2019-01-21T06:03:32.062Z,9.57
2019-01-21T06:05:56.619Z,10.48
2019-01-21T06:08:11.686Z,11.07
2019-01-21T06:10:31.186Z,9.60
2019-01-21T06:12:54.515Z,10.65
2019-01-21T06:15:14.231Z,9.80
2019-01-21T06:17:25.155Z,9.83
2019-01-21T06:19:38.890Z,10.80
2019-01-21T06:21:50.474Z,10.45
2019-01-21T06:23:55.986Z,9.65
2019-01-21T06:26:07.507Z,11.30
2019-01-21T06:28:34.838Z,10.30
2019-01-21T06:30:41.446Z,9.83
2019-01-21T06:33:09.590Z,9.23
2019-01-21T06:35:39.825Z,8.93
2019-01-21T06:37:47.131Z,10.60
2019-01-21T06:40:10.655Z,9.48
2019-01-21T06:42:14.566Z,10.82
2019-01-21T06:44:21.266Z,9.93
2019-01-21T06:46:29.048Z,8.93
2019-01-21T06:48:51.579Z,9.90
2019-01-21T06:51:20.967Z,10.40
2019-01-21T06:53:41.521Z,10.38
2019-01-21T06:56:05.159Z,10.48
2019-01-21T06:58:09.145Z,9.70
2019-01-21T07:00:30.374Z,8.60
2019-01-21T07:02:41.381Z,9.65
2019-01-21T07:04:51.067Z,9.93
2019-01-21T07:07:01.471Z,9.02
2019-01-21T07:09:08.825Z,10.23
2019-01-21T07:11:14.801Z,10.38
2019-01-21T07:13:51.946Z,9.10
2019-01-21T07:15:58.106Z,9.50
2019-01-21T07:18:04.386Z,9.35
2019-01-21T07:20:13.955Z,11.00
2019-01-21T07:22:22.710Z,9.37
2019-01-21T07:27:26.959Z,14.63
2019-01-21T07:30:04.370Z,12.23
2019-01-21T07:32:09.452Z,10.40
2019-01-21T07:34:16.250Z,9.80
2019-01-21T07:36:19.894Z,10.27
2019-01-21T07:38:35.538Z,10.10
2019-01-21T07:40:54.387Z,10.20
2019-01-21T07:43:15.691Z,9.63
2019-01-21T07:45:21.376Z,10.20
2019-01-21T07:47:53.748Z,9.70
2019-01-21T07:50:02.959Z,8.80
2019-01-21T07:52:19.341Z,10.77
2019-01-21T07:54:26.251Z,9.20
2019-01-21T07:56:34.836Z,8.93
2019-01-21T07:58:45.127Z,9.48
2019-01-21T08:00:56.974Z,10.98
2019-01-21T08:03:21.228Z,10.52
2019-01-21T08:05:25.303Z,10.93
2019-01-21T08:07:34.391Z,10.60
2019-01-21T08:09:54.986Z,9.67
2019-01-21T08:12:17.681Z,9.10
2019-01-21T08:14:26.812Z,10.17
2019-01-21T08:16:41.638Z,8.43
2019-01-21T08:18:54.311Z,8.60
2019-01-21T08:21:03.869Z,7.93
2019-01-21T08:23:30.218Z,10.17
2019-01-21T08:25:34.037Z,9.30
2019-01-21T08:27:55.677Z,8.77
2019-01-21T08:30:01.360Z,8.80
2019-01-21T08:32:05.823Z,9.15
2019-01-21T08:34:21.234Z,12.02
2019-01-21T08:36:57.863Z,10.00
2019-01-21T08:39:18.197Z,8.40
2019-01-21T08:41:40.971Z,8.70
2019-01-21T08:43:51.462Z,9.57
2019-01-21T08:46:13.968Z,7.57
2019-01-21T08:48:25.871Z,7.82
2019-01-21T08:50:47.427Z,9.23
2019-01-21T08:53:06.764Z,8.88
2019-01-21T08:55:22.656Z,8.52
2019-01-21T08:57:45.182Z,9.35
2019-01-21T08:59:52.598Z,10.05
2019-01-21T09:02:04.355Z,9.13
2019-01-21T09:04:25.465Z,7.23
2019-01-21T09:06:49.838Z,8.43
2019-01-21T09:09:01.523Z,7.65
2019-01-21T09:11:12.840Z,10.13
2019-01-21T09:13:24.043Z,8.97
2019-01-21T09:15:41.810Z,10.43
2019-01-21T09:18:02.174Z,10.40
2019-01-21T09:20:10.764Z,10.90
2019-01-21T09:22:16.056Z,9.75
2019-01-21T09:24:36.594Z,9.32
2019-01-21T09:26:41.306Z,8.50
2019-01-21T09:29:04.532Z,8.07
2019-01-21T09:31:14.054Z,8.82
2019-01-21T09:33:35.686Z,9.13
2019-01-21T09:35:43.298Z,8.93
2019-01-21T09:37:57.574Z,8.20
2019-01-21T09:40:04.763Z,9.03
2019-01-21T09:42:23.465Z,9.30
2019-01-21T09:44:28.079Z,9.83
2019-01-21T09:46:46.454Z,9.37
2019-01-21T09:48:49.629Z,8.67
2019-01-21T09:50:52.598Z,9.90
2019-01-21T09:52:55.510Z,11.70
2019-01-21T09:54:58.576Z,9.32
2019-01-21T09:57:01.472Z,9.10
2019-01-21T09:59:05.172Z,10.88
2019-01-21T10:01:08.941Z,8.95
2019-01-21T10:03:12.309Z,8.82
2019-01-21T10:05:15.219Z,10.63
2019-01-21T10:07:18.923Z,9.57
2019-01-21T10:09:41.410Z,9.38
2019-01-21T10:11:58.006Z,7.60
2019-01-21T10:14:06.477Z,9.77
2019-01-21T10:16:20.518Z,9.43
2019-01-21T10:18:30.039Z,8.57
2019-01-21T10:20:38.934Z,8.80
2019-01-21T10:22:48.799Z,8.50
2019-01-21T10:24:54.334Z,9.10
2019-01-21T10:27:30.211Z,8.15
2019-01-21T10:29:48.807Z,8.97
2019-01-21T10:31:59.411Z,8.80
2019-01-21T10:34:05.487Z,9.45
2019-01-21T10:36:12.081Z,7.55
2019-01-21T10:38:34.590Z,9.25
2019-01-21T10:40:48.019Z,9.40
2019-01-21T10:42:52.211Z,9.18
2019-01-21T10:45:17.774Z,9.40
2019-01-21T10:47:34.544Z,8.73
2019-01-21T10:49:47.412Z,8.90
2019-01-21T10:52:03.081Z,9.30
2019-01-21T10:54:23.635Z,8.63
2019-01-21T10:56:36.342Z,9.33
2019-01-21T10:58:51.151Z,8.90
2019-01-21T11:01:11.330Z,9.47
2019-01-21T11:03:26.599Z,10.90
2019-01-21T11:05:48.896Z,9.50
2019-01-21T11:08:00.488Z,9.97
2019-01-21T11:10:12.150Z,8.87
2019-01-21T11:12:21.608Z,9.13
2019-01-21T11:14:29.130Z,9.23
2019-01-21T11:16:50.748Z,9.90
2019-01-21T11:18:59.570Z,9.45
2019-01-21T11:21:10.095Z,11.27
2019-01-21T11:23:13.811Z,8.80
2019-01-21T11:25:28.242Z,9.38
2019-01-21T11:27:31.848Z,10.15
2019-01-21T11:29:47.284Z,10.90
2019-01-21T11:32:08.110Z,9.93
2019-01-21T11:34:28.618Z,9.50
2019-01-21T11:36:33.346Z,8.43
2019-01-21T11:38:55.479Z,9.60
2019-01-21T11:41:15.967Z,10.17
2019-01-21T11:43:36.175Z,8.93
2019-01-21T11:45:40.235Z,9.67
2019-01-21T11:47:44.371Z,11.40
2019-01-21T11:49:51.450Z,10.53
2019-01-21T11:52:05.181Z,9.57
2019-01-21T11:54:11.873Z,10.15
2019-01-21T11:56:22.121Z,11.25
2019-01-21T11:58:33.494Z,10.50
2019-01-21T12:00:41.874Z,9.60
2019-01-21T12:02:59.409Z,10.33
2019-01-21T12:05:09.896Z,10.68
2019-01-21T12:07:16.510Z,9.32
2019-01-21T12:09:35.922Z,9.38
2019-01-21T12:14:30.423Z,13.52
2019-01-21T12:16:49.826Z,11.50
2019-01-21T12:19:04.386Z,12.40
2019-01-21T12:21:15.757Z,10.37
2019-01-21T12:23:33.572Z,11.05
2019-01-21T12:25:39.951Z,9.73
2019-01-21T12:28:02.017Z,10.07
2019-01-21T12:30:08.790Z,10.07
2019-01-21T12:32:17.347Z,11.75
2019-01-21T12:34:28.849Z,10.70
2019-01-21T12:36:33.434Z,9.52
2019-01-21T12:38:43.971Z,10.00
2019-01-21T12:40:57.631Z,10.95
2019-01-21T12:43:03.531Z,10.10
2019-01-21T12:45:27.091Z,11.75
2019-01-21T12:47:40.363Z,10.43
2019-01-21T12:52:34.158Z,13.25
2019-01-21T12:54:53.733Z,11.30
2019-01-21T12:57:18.133Z,12.10
2019-01-21T12:59:43.408Z,10.17
2019-01-21T13:01:48.178Z,12.10
2019-01-21T13:03:56.866Z,11.48
2019-01-21T13:06:16.431Z,10.52
2019-01-21T13:08:29.218Z,10.75
2019-01-21T13:10:39.674Z,11.00
2019-01-21T13:12:58.259Z,11.52
2019-01-21T13:15:01.203Z,11.27
2019-01-21T13:17:06.582Z,11.00
2019-01-21T13:22:04.850Z,14.32
2019-01-21T13:24:16.508Z,12.52
2019-01-21T13:26:50.203Z,11.68
2019-01-21T13:28:53.146Z,11.23
2019-01-21T13:30:57.038Z,11.02
2019-01-21T13:33:17.883Z,11.98
2019-01-21T13:35:21.560Z,11.50
2019-01-21T13:37:41.048Z,10.93
2019-01-21T13:40:01.511Z,10.93
2019-01-21T13:42:05.534Z,10.93
2019-01-21T13:44:20.755Z,11.50
2019-01-21T13:49:15.719Z,13.60
2019-01-21T13:51:23.221Z,13.40
2019-01-21T13:53:32.935Z,11.60
2019-01-21T13:56:01.127Z,10.50
2019-01-21T13:58:15.155Z,11.52
2019-01-21T14:00:21.920Z,12.00
2019-01-21T14:02:29.322Z,11.77
2019-01-21T14:04:39.054Z,10.50
2019-01-21T14:06:45.654Z,11.00
2019-01-21T14:09:16.095Z,10.85
2019-01-21T14:11:37.799Z,11.10
2019-01-21T14:13:41.471Z,11.97
2019-01-21T14:15:53.964Z,12.97
2019-01-21T14:18:06.552Z,12.70
2019-01-21T14:20:21.130Z,13.00
2019-01-21T14:22:38.585Z,13.33
2019-01-21T14:24:45.998Z,11.70
2019-01-21T14:26:48.991Z,12.13
2019-01-21T14:28:53.605Z,11.73
2019-01-21T14:31:03.458Z,11.68
2019-01-21T14:33:07.567Z,12.25
2019-01-21T14:35:18.270Z,14.15
2019-01-21T14:37:39.527Z,12.50
2019-01-21T14:39:51.356Z,11.70
2019-01-21T14:42:08.922Z,12.35
2019-01-21T14:44:18.765Z,12.37
2019-01-21T14:46:28.294Z,12.25
2019-01-21T14:48:36.347Z,11.93
2019-01-21T14:50:50.398Z,13.40
2019-01-21T14:52:50.064Z,11.52
2019-01-21T14:55:12.359Z,11.98
2019-01-21T15:00:14.704Z,15.85
2019-01-21T15:02:24.628Z,12.30
2019-01-21T15:04:30.052Z,12.47
2019-01-21T15:06:48.601Z,11.32
2019-01-21T15:08:56.257Z,11.90
2019-01-21T15:11:14.651Z,11.80
2019-01-21T15:13:18.383Z,12.10
2019-01-21T15:15:27.121Z,11.30
2019-01-21T15:17:44.643Z,12.50
2019-01-21T15:19:47.626Z,12.73
2019-01-21T15:21:55.986Z,12.10
2019-01-21T15:24:03.417Z,13.02
2019-01-21T15:26:25.259Z,11.95
2019-01-21T15:28:33.822Z,11.00
2019-01-21T15:30:57.210Z,11.98
2019-01-21T15:33:29.879Z,10.63
2019-01-21T15:35:38.300Z,10.63
2019-01-21T15:37:43.787Z,12.50
2019-01-21T15:39:57.367Z,10.40
2019-01-21T15:42:08.799Z,11.85
2019-01-21T15:44:13.310Z,11.27
2019-01-21T15:46:24.995Z,12.05
2019-01-21T15:48:41.332Z,10.60
2019-01-21T15:50:48.374Z,12.02
2019-01-21T15:52:58.612Z,11.15
2019-01-21T15:55:08.878Z,11.50
2019-01-21T15:57:30.226Z,12.37
2019-01-21T15:59:48.008Z,11.07
2019-01-21T16:01:52.622Z,12.07
2019-01-21T16:03:56.610Z,11.88
2019-01-21T16:06:04.270Z,11.27
2019-01-21T16:08:07.158Z,12.73
2019-01-21T16:10:24.739Z,12.30
2019-01-21T16:12:38.710Z,11.13
2019-01-21T16:14:42.349Z,12.90
2019-01-21T16:17:10.969Z,12.70
2019-01-21T16:19:13.852Z,12.87
2019-01-21T16:21:19.385Z,12.07
2019-01-21T16:23:28.202Z,13.10
2019-01-21T16:25:31.217Z,13.20
2019-01-21T16:27:58.600Z,13.40
2019-01-21T16:30:17.545Z,11.45
2019-01-21T16:32:20.506Z,11.77
2019-01-21T16:34:27.008Z,13.00
2019-01-21T16:36:40.823Z,14.18
2019-01-21T16:38:44.790Z,14.78
2019-01-21T16:41:05.583Z,17.27
2019-01-21T16:43:08.474Z,15.10
2019-01-21T16:45:12.175Z,15.70
2019-01-21T16:47:15.054Z,14.75
2019-01-21T16:49:18.039Z,13.05
2019-01-21T16:51:21.025Z,13.82
2019-01-21T16:53:24.707Z,13.73
2019-01-21T16:55:27.706Z,13.88
2019-01-21T16:57:31.223Z,15.15
2019-01-21T16:59:34.894Z,16.15
2019-01-21T17:01:37.813Z,14.52
2019-01-21T17:03:41.978Z,16.85
2019-01-21T17:05:46.398Z,15.07
2019-01-21T17:07:49.382Z,14.43
2019-01-21T17:09:53.514Z,14.75
2019-01-21T17:11:57.179Z,14.40
2019-01-21T17:14:00.065Z,14.63
2019-01-21T17:16:02.963Z,13.90
2019-01-21T17:18:06.666Z,14.77
2019-01-21T17:20:11.335Z,15.98
2019-01-21T17:22:14.212Z,13.55
2019-01-21T17:24:17.102Z,14.20
2019-01-21T17:26:20.005Z,12.20
2019-01-21T17:28:22.912Z,13.52
2019-01-21T17:30:27.583Z,14.20
2019-01-21T17:32:31.717Z,13.63
2019-01-21T17:34:34.631Z,14.07
2019-01-21T17:36:39.071Z,12.90
2019-01-21T17:38:42.025Z,12.97
2019-01-21T17:40:45.110Z,14.32
2019-01-21T17:42:48.095Z,15.05
2019-01-21T17:44:51.750Z,14.55
2019-01-21T17:46:54.703Z,14.07
2019-01-21T17:48:58.385Z,13.93
2019-01-21T17:51:02.065Z,13.15
2019-01-21T17:53:05.936Z,14.05
2019-01-21T17:55:08.848Z,13.88
2019-01-21T17:57:12.102Z,13.35
2019-01-21T17:59:14.718Z,12.23
2019-01-21T18:01:17.635Z,13.10
2019-01-21T18:03:21.298Z,13.30
2019-01-21T18:05:24.958Z,12.27
2019-01-21T18:07:27.873Z,12.83
2019-01-21T18:09:30.755Z,12.13
2019-01-21T18:11:33.650Z,11.87
2019-01-21T18:13:37.342Z,13.67
2019-01-21T18:15:41.060Z,13.35
2019-01-21T18:17:44.862Z,12.73
2019-01-21T18:19:49.246Z,11.63
2019-01-21T18:21:52.786Z,13.80
2019-01-21T18:23:56.418Z,11.97
2019-01-21T18:26:00.166Z,14.43
2019-01-21T18:28:03.828Z,14.07
2019-01-21T18:30:09.696Z,14.02
2019-01-21T18:32:12.586Z,14.60
2019-01-21T18:34:15.497Z,13.68
2019-01-21T18:36:19.950Z,13.57
2019-01-21T18:38:22.999Z,14.68
2019-01-21T18:40:25.953Z,14.15
2019-01-21T18:42:30.605Z,14.90
2019-01-21T18:44:35.631Z,14.73
2019-01-21T18:46:39.307Z,15.35
2019-01-21T18:48:42.216Z,12.30
2019-01-21T18:50:45.891Z,14.55
2019-01-21T18:52:48.899Z,14.38
2019-01-21T18:54:53.419Z,14.32
2019-01-21T18:56:57.098Z,15.90
2019-01-21T18:59:00.778Z,15.23
2019-01-21T19:01:03.902Z,14.17
2019-01-21T19:03:07.551Z,15.23
2019-01-21T19:05:11.274Z,14.13
2019-01-21T19:07:14.345Z,13.02
2019-01-21T19:09:17.335Z,14.87
2019-01-21T19:11:20.224Z,13.50
2019-01-21T19:13:23.249Z,12.45
2019-01-21T19:15:26.946Z,13.07
2019-01-21T19:17:30.578Z,11.77
2019-01-21T19:19:33.491Z,13.17
2019-01-21T19:21:37.038Z,12.90
2019-01-21T19:23:39.945Z,13.52
2019-01-21T19:25:42.833Z,12.70
2019-01-21T19:27:45.746Z,12.85
2019-01-21T19:29:49.430Z,14.33
2019-01-21T19:31:52.314Z,14.65
2019-01-21T19:33:56.819Z,15.35
2019-01-21T19:35:59.711Z,15.52
2019-01-21T19:38:03.366Z,15.98
2019-01-21T19:40:07.584Z,15.90
2019-01-21T19:42:10.499Z,14.25
2019-01-21T19:44:13.511Z,14.93
2019-01-21T19:46:17.279Z,15.60
2019-01-21T19:48:20.957Z,14.40
2019-01-21T19:50:23.860Z,15.10
2019-01-21T19:52:26.843Z,15.77
2019-01-21T19:54:29.767Z,18.37
2019-01-21T19:56:32.715Z,16.85
2019-01-21T19:58:35.691Z,16.70
2019-01-21T20:00:39.374Z,17.87
2019-01-21T20:02:42.508Z,17.73
2019-01-21T20:04:46.177Z,16.25
2019-01-21T20:06:49.054Z,17.73
2019-01-21T20:08:52.039Z,16.85
2019-01-21T20:10:55.023Z,14.80
2019-01-21T20:12:57.906Z,16.20
2019-01-21T20:15:01.600Z,15.32
2019-01-21T20:17:06.007Z,14.30
2019-01-21T20:19:08.999Z,14.50
2019-01-21T20:21:11.980Z,13.52
2019-01-21T20:23:15.103Z,13.55
2019-01-21T20:25:18.762Z,15.60
2019-01-21T20:27:21.649Z,14.73
2019-01-21T20:29:24.769Z,15.45
2019-01-21T20:31:28.430Z,15.15
2019-01-21T20:33:33.270Z,16.47
2019-01-21T20:35:36.951Z,17.00
2019-01-21T20:37:39.908Z,16.02
2019-01-21T20:39:43.026Z,16.93
2019-01-21T20:41:45.932Z,16.50
2019-01-21T20:43:50.414Z,16.47
2019-01-21T20:45:53.354Z,13.67
2019-01-21T20:47:56.991Z,17.85
2019-01-21T20:49:59.895Z,17.00
2019-01-21T20:52:02.908Z,17.70
2019-01-21T20:54:06.551Z,18.58
2019-01-21T20:56:09.558Z,17.12
2019-01-21T20:58:13.675Z,16.58
2019-01-21T21:00:18.864Z,16.23
2019-01-21T21:02:21.830Z,16.00
2019-01-21T21:04:24.730Z,15.32
2019-01-21T21:06:27.688Z,15.18
2019-01-21T21:08:30.735Z,16.77
2019-01-21T21:10:33.826Z,16.42
2019-01-21T21:12:37.638Z,14.10
2019-01-21T21:14:41.427Z,14.60
2019-01-21T21:16:44.332Z,15.77
2019-01-21T21:18:48.119Z,14.07
2019-01-21T21:20:51.030Z,15.27
2019-01-21T21:22:54.632Z,15.47
2019-01-21T21:24:57.583Z,15.40
2019-01-21T21:27:01.267Z,15.63
2019-01-21T21:29:04.167Z,14.13
2019-01-21T21:31:08.667Z,14.27
2019-01-21T21:33:11.660Z,14.55
2019-01-21T21:35:15.919Z,16.20
2019-01-21T21:37:18.847Z,14.87
2019-01-21T21:39:21.759Z,16.27
2019-01-21T21:41:24.664Z,15.05
2019-01-21T21:43:27.590Z,15.70
2019-01-21T21:45:30.490Z,17.00
2019-01-21T21:47:34.278Z,15.48
2019-01-21T21:49:37.974Z,15.20
2019-01-21T21:51:40.861Z,14.43
2019-01-21T21:53:44.584Z,16.50
2019-01-21T21:55:48.243Z,15.88
2019-01-21T21:57:51.149Z,17.23
2019-01-21T21:59:55.734Z,16.40
2019-01-21T22:01:58.627Z,14.77
2019-01-21T22:04:01.617Z,15.03
2019-01-21T22:06:05.283Z,16.00
2019-01-21T22:08:09.547Z,14.02
2019-01-21T22:10:14.199Z,15.75
2019-01-21T22:12:18.065Z,16.00
2019-01-21T22:14:21.776Z,13.45
2019-01-21T22:16:24.622Z,16.62
2019-01-21T22:18:27.554Z,14.35
2019-01-21T22:20:30.960Z,15.40
2019-01-21T22:22:34.881Z,13.20
2019-01-21T22:24:36.795Z,14.05
2019-01-21T22:26:40.703Z,11.60
2019-01-21T22:28:44.384Z,14.23
2019-01-21T22:30:47.280Z,13.90
2019-01-21T22:32:50.964Z,14.95
2019-01-21T22:34:54.662Z,13.50
2019-01-21T22:36:58.319Z,13.60
2019-01-21T22:39:01.358Z,14.65
2019-01-21T22:41:05.050Z,13.80
2019-01-21T22:43:08.750Z,15.27
2019-01-21T22:45:12.455Z,14.90
2019-01-21T22:47:15.340Z,13.83
2019-01-21T22:49:19.027Z,15.17
2019-01-21T22:51:22.689Z,16.77
2019-01-21T22:53:26.566Z,17.00
2019-01-21T22:55:29.515Z,15.23
2019-01-21T22:57:33.222Z,15.90
2019-01-21T22:59:36.911Z,15.88
2019-01-21T23:01:40.566Z,14.60
2019-01-21T23:03:43.508Z,13.05
2019-01-21T23:05:47.190Z,14.65
2019-01-21T23:07:50.095Z,14.02
2019-01-21T23:09:53.762Z,14.10
2019-01-21T23:11:56.647Z,15.93
2019-01-21T23:13:59.701Z,13.68
2019-01-21T23:16:03.330Z,14.00
2019-01-21T23:18:06.216Z,13.70
2019-01-21T23:20:09.227Z,14.77
2019-01-21T23:22:12.897Z,14.23
2019-01-21T23:24:16.706Z,12.87
2019-01-21T23:26:19.126Z,14.23
2019-01-21T23:28:22.443Z,12.63
2019-01-21T23:30:25.375Z,13.00
2019-01-21T23:32:28.271Z,12.40
2019-01-21T23:34:31.590Z,11.70
2019-01-21T23:36:34.596Z,13.85
2019-01-21T23:38:37.486Z,12.48
2019-01-21T23:40:41.160Z,13.70
2019-01-21T23:42:44.187Z,13.75
2019-01-21T23:44:47.864Z,16.58
2019-01-21T23:46:52.110Z,14.70
2019-01-21T23:48:54.991Z,15.00
2019-01-21T23:50:58.069Z,13.65
2019-01-21T23:53:01.720Z,12.83
2019-01-21T23:55:04.730Z,13.07
2019-01-21T23:57:07.622Z,14.97
2019-01-21T23:59:11.966Z,15.27
